Weather

Clear
Tuesday 07/17 20%
Clear
Sunny to partly cloudy. A stray shower or thunderstorm is possible. High 92F. Winds S at 5 to 10 mph.
Clear
Wednesday 07/18 20%
Clear
Except for a few afternoon clouds, mainly sunny. A stray shower or thunderstorm is possible. High 96F. Winds W at 5 to 10 mph.
Partly Cloudy
Thursday 07/19 20%
Partly Cloudy
Mostly sunny early then becoming mostly cloudy later in the day. A stray shower or thunderstorm is possible. High 98F. Winds NW at 5 to 10 mph.
Mostly Cloudy
Friday 07/20 20%
Mostly Cloudy
A mix of clouds and sun early, then becoming cloudy later in the day. A stray shower or thunderstorm is possible. High 97F. Winds S at 10 to 15 mph.
Partly Cloudy
Saturday 07/21 20%
Partly Cloudy
Partly cloudy skies. A stray shower or thunderstorm is possible. High 97F. Winds SSE at 5 to 10 mph.

 

 

For a detailed forecast click the banner below.

ballooncastlogo

 

 

Available data for KABQ from the past 2 hours
ALBUQUERQUE, NM
Metar
KABQ 171052Z 34004KT 10SM FEW160 FEW250 21/16 A3027 RMK AO2 SLP171 T02060156

10:52 UTC

Wind: 340° 4kt

Visibility: 10 SM

Sky: FEW 16000 ft

Temp: 21 deg C / 69.8 deg F

Dewpoint: 16 deg C / 60.8 deg F

Pressure: 30.27 inHg

TAF
KABQ 170526Z 1706/1806 08007KT P6SM BKN100 FM171000 VRB04KT P6SM SCT200 FM172000 21007KT P6SM FEW070 FM180400 VRB04KT P6SM SKC